Time;durP1;ratioP1;P1;durP2;ratioP2;P2;SDS_P1;SDS_P2;PMS_P1;PMS_P2;Temp;Humidity;BMP_temperature;BMP_pressure;BME280_temperature;BME280_humidity;BME280_pressure;Samples;Min_cycle;Max_cycle;Signal;HPM_P1;HPM_P2
2023/11/09 00:00:10;;;;;;;29.00;20.90;;;;;;;12.73;88.07;98908.17;109484;1256;74632;-56
2023/11/09 00:02:37;;;;;;;30.20;20.70;;;;;;;12.84;87.63;98913.20;109611;1251;67092;-57
2023/11/09 00:05:05;;;;;;;32.30;21.60;;;;;;;12.81;87.69;98911.83;109608;1251;72687;-57
2023/11/09 00:07:33;;;;;;;29.40;20.70;;;;;;;12.82;87.76;98913.31;109281;1250;60884;-56
2023/11/09 00:10:02;;;;;;;30.10;21.50;;;;;;;12.77;88.26;98915.62;109275;1251;59994;-57
2023/11/09 00:12:30;;;;;;;23.50;16.90;;;;;;;12.75;88.37;98910.73;109537;1251;73367;-57
2023/11/09 00:14:58;;;;;;;29.50;20.20;;;;;;;12.74;88.25;98909.40;109631;1251;68475;-56
2023/11/09 00:17:25;;;;;;;37.50;21.50;;;;;;;12.81;87.98;98911.81;109521;1251;72676;-56
2023/11/09 00:19:53;;;;;;;34.20;23.10;;;;;;;12.77;88.04;98916.38;109496;1251;60848;-56
2023/11/09 00:22:21;;;;;;;33.40;25.00;;;;;;;12.84;87.37;98915.50;109502;1253;60408;-57
2023/11/09 00:24:49;;;;;;;30.10;22.30;;;;;;;12.79;87.47;98920.23;109518;1251;73382;-57
2023/11/09 00:27:19;;;;;;;39.50;27.90;;;;;;;12.76;87.50;98919.13;109540;1254;69121;-57
2023/11/09 00:29:47;;;;;;;37.60;23.50;;;;;;;12.80;87.13;98920.45;109527;1251;72704;-57
2023/11/09 00:32:17;;;;;;;54.90;31.90;;;;;;;12.82;86.99;98921.66;109506;1254;60890;-57
2023/11/09 00:34:45;;;;;;;75.80;42.30;;;;;;;12.89;86.84;98919.34;109522;1252;60208;-58
2023/11/09 00:37:13;;;;;;;64.90;36.60;;;;;;;12.98;86.29;98919.09;109556;1253;74621;-57
2023/11/09 00:39:41;;;;;;;71.70;39.50;;;;;;;12.99;86.22;98922.31;109543;1251;68394;-57
2023/11/09 00:42:08;;;;;;;47.90;29.20;;;;;;;12.97;86.52;98929.48;109532;1253;72687;-59
2023/11/09 00:44:36;;;;;;;58.70;31.90;;;;;;;12.92;86.77;98930.08;109492;1251;59574;-57
2023/11/09 00:47:03;;;;;;;51.00;30.30;;;;;;;12.87;87.10;98930.61;109475;1251;59929;-56
2023/11/09 00:49:31;;;;;;;100.20;51.40;;;;;;;12.91;87.10;98928.20;109524;1251;74675;-57
2023/11/09 00:51:59;;;;;;;78.20;40.70;;;;;;;12.93;87.19;98925.48;109508;1251;67088;-56
2023/11/09 00:54:26;;;;;;;71.60;32.60;;;;;;;12.85;87.73;98927.23;109525;1251;72753;-56
2023/11/09 00:56:54;;;;;;;103.20;54.20;;;;;;;12.87;87.84;98923.07;109504;1254;60964;-56
2023/11/09 00:59:21;;;;;;;92.80;46.60;;;;;;;12.85;87.97;98922.13;109536;1252;58982;-56
2023/11/09 01:01:49;;;;;;;126.60;64.10;;;;;;;12.91;88.04;98925.19;109496;1251;74607;-56
2023/11/09 01:04:17;;;;;;;115.10;61.40;;;;;;;13.11;86.81;98924.72;109591;1251;68363;-56
2023/11/09 01:06:44;;;;;;;92.30;51.60;;;;;;;13.10;86.77;98924.04;109576;1254;71954;-56
2023/11/09 01:09:13;;;;;;;57.80;35.20;;;;;;;13.08;87.15;98929.44;109532;1254;60796;-58
2023/11/09 01:11:41;;;;;;;66.70;37.20;;;;;;;13.08;87.34;98926.95;109474;1251;58941;-57
2023/11/09 01:14:08;;;;;;;49.40;41.30;;;;;;;13.11;87.62;98927.09;109512;1252;74602;-58
2023/11/09 01:16:36;;;;;;;45.10;40.20;;;;;;;13.07;88.13;98926.16;109508;1251;66771;-57
2023/11/09 01:19:04;;;;;;;60.60;49.10;;;;;;;13.21;87.14;98931.40;109487;1254;71382;-58
2023/11/09 01:21:34;;;;;;;39.20;32.20;;;;;;;13.26;86.91;98934.54;109544;1251;59573;-58
2023/11/09 01:24:02;;;;;;;41.00;33.40;;;;;;;13.23;86.93;98936.89;109538;1251;59034;-58
2023/11/09 01:26:30;;;;;;;26.60;20.40;;;;;;;13.26;86.87;98938.15;109517;1254;74592;-58
2023/11/09 01:28:57;;;;;;;29.20;19.70;;;;;;;13.29;86.70;98942.12;109613;1251;68419;-60
2023/11/09 01:31:24;;;;;;;25.50;20.00;;;;;;;13.30;86.23;98940.42;109522;1251;72425;-61
2023/11/09 01:33:52;;;;;;;24.50;19.00;;;;;;;13.31;86.32;98941.34;109593;1253;60989;-59
2023/11/09 01:36:31;;;;;;;;;;;;;;;13.28;86.54;98942.34;109559;1251;58808;-59
2023/11/09 01:38:59;;;;;;;21.20;17.00;;;;;;;13.26;86.51;98942.41;109497;1251;74634;-58
2023/11/09 01:41:26;;;;;;;30.40;18.60;;;;;;;13.23;86.73;98941.73;109505;1251;67656;-61
2023/11/09 01:43:55;;;;;;;28.20;20.00;;;;;;;13.20;86.99;98949.09;109502;1251;72913;-57
2023/11/09 01:46:24;;;;;;;21.60;15.70;;;;;;;13.18;87.11;98950.83;109571;1253;61000;-57
2023/11/09 01:48:52;;;;;;;24.90;18.10;;;;;;;13.16;87.09;98956.95;109521;1251;59985;-60
2023/11/09 01:51:20;;;;;;;;;;;;;;;13.06;87.83;98959.52;109541;1251;74597;-58
2023/11/09 01:53:48;;;;;;;23.20;16.40;;;;;;;13.02;87.94;98959.09;109492;1251;68669;-57
2023/11/09 01:56:15;;;;;;;23.80;17.10;;;;;;;13.06;87.63;98962.42;109510;1251;72635;-57
2023/11/09 01:58:44;;;;;;;24.30;17.10;;;;;;;13.15;86.83;98965.08;109390;1251;60048;-57
2023/11/09 02:01:12;;;;;;;;;;;;;;;13.17;86.38;98965.13;109462;1251;59929;-57
2023/11/09 02:03:40;;;;;;;26.90;16.60;;;;;;;13.10;86.57;98969.28;109457;1251;73677;-59
2023/11/09 02:06:12;;;;;;;27.40;18.00;;;;;;;13.10;86.53;98975.05;109486;1251;68376;-57
2023/11/09 02:08:40;;;;;;;24.70;16.90;;;;;;;12.85;88.51;98974.70;109649;1251;72634;-58
2023/11/09 02:11:07;;;;;;;22.30;16.00;;;;;;;12.97;87.95;98975.07;109661;1251;59658;-59
2023/11/09 02:13:37;;;;;;;36.20;18.80;;;;;;;12.97;88.10;98980.83;109354;1250;58893;-60
2023/11/09 02:16:05;;;;;;;29.70;18.80;;;;;;;12.96;87.75;98976.09;109492;1250;73468;-61
2023/11/09 02:18:33;;;;;;;85.50;29.50;;;;;;;12.77;89.16;98978.52;109449;1250;68300;-58
2023/11/09 02:21:01;;;;;;;40.20;28.70;;;;;;;12.94;87.99;98982.97;109608;1251;71456;-58
2023/11/09 02:23:32;;;;;;;37.20;28.40;;;;;;;13.13;86.77;98986.98;109517;1250;59615;-58
2023/11/09 02:26:00;;;;;;;49.60;37.20;;;;;;;12.98;87.10;98989.71;109605;1254;60015;-60
2023/11/09 02:28:28;;;;;;;43.50;37.50;;;;;;;12.99;86.77;98992.17;109606;1251;73404;-58
2023/11/09 02:30:55;;;;;;;27.60;18.90;;;;;;;13.06;86.48;98993.08;109642;1251;67340;-58
2023/11/09 02:33:23;;;;;;;39.10;31.40;;;;;;;13.15;85.58;98997.75;109429;1251;71396;-59
2023/11/09 02:35:50;;;;;;;42.40;30.10;;;;;;;13.22;84.54;98999.15;109614;1252;59094;-57
2023/11/09 02:38:18;;;;;;;45.90;32.30;;;;;;;13.41;83.56;99000.00;109593;1251;60008;-58
2023/11/09 02:40:45;;;;;;;35.30;24.50;;;;;;;13.35;83.51;99000.05;109636;1251;73367;-60
2023/11/09 02:43:13;;;;;;;31.30;20.90;;;;;;;13.42;83.06;99004.64;109607;1251;67420;-60
2023/11/09 02:45:41;;;;;;;38.30;22.80;;;;;;;13.21;83.25;99004.82;109606;1251;72659;-58
2023/11/09 02:48:09;;;;;;;58.40;34.90;;;;;;;13.22;83.38;99006.27;109253;1251;59636;-61
2023/11/09 02:50:37;;;;;;;20.30;15.00;;;;;;;12.96;84.36;99005.42;109379;1251;59066;-60
2023/11/09 02:53:04;;;;;;;29.50;18.30;;;;;;;13.16;83.13;99010.14;109456;1251;73394;-59
2023/11/09 02:55:33;;;;;;;22.60;16.60;;;;;;;13.17;82.52;99007.23;109239;1251;68688;-57
2023/11/09 02:58:00;;;;;;;81.90;48.50;;;;;;;13.05;83.03;99011.80;109598;1251;72649;-61
2023/11/09 03:00:28;;;;;;;42.90;31.50;;;;;;;13.03;82.71;99010.08;109388;1252;59744;-58
2023/11/09 03:02:55;;;;;;;27.40;19.60;;;;;;;12.99;82.44;99009.97;109582;1253;59992;-61
2023/11/09 03:05:26;;;;;;;23.20;16.70;;;;;;;13.05;82.12;99013.52;109489;1253;74664;-58
2023/11/09 03:07:54;;;;;;;22.50;17.50;;;;;;;13.04;81.74;99012.52;109502;1252;70321;-60
2023/11/09 03:10:21;;;;;;;26.00;19.50;;;;;;;12.96;82.13;99016.73;109614;1251;71375;-60
2023/11/09 03:12:49;;;;;;;40.10;33.80;;;;;;;12.91;82.40;99018.42;109268;1251;60834;-60
2023/11/09 03:15:19;;;;;;;32.80;23.10;;;;;;;12.88;82.85;99019.70;109469;1251;60441;-58
2023/11/09 03:17:48;;;;;;;24.20;17.30;;;;;;;13.00;81.94;99017.34;109485;1251;74613;-60
2023/11/09 03:20:16;;;;;;;21.60;17.90;;;;;;;13.03;81.76;99021.09;109616;1251;67312;-57
2023/11/09 03:22:44;;;;;;;22.90;15.90;;;;;;;13.02;81.69;99017.11;109578;1251;71797;-58
2023/11/09 03:25:12;;;;;;;;;;;;;;;13.07;81.22;99022.55;109647;1252;59582;-58
2023/11/09 03:27:40;;;;;;;26.20;17.40;;;;;;;13.07;81.18;99020.13;109253;1251;59731;-58
2023/11/09 03:30:08;;;;;;;55.30;34.50;;;;;;;13.15;80.66;99023.14;109497;1251;73690;-57
2023/11/09 03:32:35;;;;;;;40.50;23.60;;;;;;;13.16;80.26;99023.60;109372;1254;67781;-58
2023/11/09 03:35:04;;;;;;;24.30;16.10;;;;;;;13.19;80.00;99023.85;109213;1254;71450;-58
2023/11/09 03:37:31;;;;;;;32.50;20.90;;;;;;;12.98;80.70;99023.77;109034;1255;60939;-58
2023/11/09 03:39:59;;;;;;;50.40;31.40;;;;;;;13.17;79.74;99025.16;109304;1255;59839;-59
2023/11/09 03:42:27;;;;;;;51.50;26.70;;;;;;;13.16;79.56;99034.17;109387;1254;74616;-57
2023/11/09 03:44:55;;;;;;;45.30;27.50;;;;;;;13.14;79.05;99035.15;109174;1257;67579;-59
2023/11/09 03:47:24;;;;;;;41.10;23.80;;;;;;;13.17;79.12;99040.42;109126;1256;73530;-57
2023/11/09 03:49:51;;;;;;;34.00;20.00;;;;;;;13.26;78.48;99040.45;109117;1256;60979;-58
2023/11/09 03:52:18;;;;;;;26.30;16.70;;;;;;;13.32;78.43;99048.06;109141;1256;59983;-57
2023/11/09 03:54:46;;;;;;;35.70;19.50;;;;;;;13.18;78.65;99047.69;109103;1256;72665;-57
2023/11/09 03:57:14;;;;;;;29.60;17.20;;;;;;;13.01;80.07;99052.99;109089;1256;68694;-58
2023/11/09 03:59:41;;;;;;;36.40;24.10;;;;;;;13.15;79.24;99053.52;109096;1256;72695;-57
2023/11/09 04:02:09;;;;;;;28.70;18.00;;;;;;;13.08;79.15;99054.77;109107;1257;59599;-57
2023/11/09 04:04:36;;;;;;;36.20;22.90;;;;;;;13.01;79.47;99063.45;109260;1254;59080;-58
2023/11/09 04:07:04;;;;;;;38.10;23.70;;;;;;;13.04;79.11;99063.21;109316;1254;73378;-58
2023/11/09 04:09:31;;;;;;;50.30;28.50;;;;;;;13.11;78.89;99063.38;109055;1254;68370;-58
2023/11/09 04:11:59;;;;;;;44.70;30.00;;;;;;;12.98;79.03;99064.61;109301;1254;72727;-58
2023/11/09 04:14:26;;;;;;;31.50;21.70;;;;;;;13.01;79.20;99063.66;109296;1254;60858;-61
2023/11/09 04:16:54;;;;;;;67.90;53.00;;;;;;;13.13;78.30;99066.05;109586;1251;59977;-59
2023/11/09 04:19:21;;;;;;;242.70;219.40;;;;;;;13.08;78.37;99070.58;109743;1250;74595;-57
2023/11/09 04:21:49;;;;;;;67.30;44.40;;;;;;;13.00;78.50;99070.73;109668;1251;67467;-57
2023/11/09 04:24:17;;;;;;;26.00;19.60;;;;;;;12.88;78.95;99071.04;109416;1251;71178;-57
2023/11/09 04:26:45;;;;;;;22.30;19.60;;;;;;;13.01;78.19;99073.09;109626;1251;59560;-58
2023/11/09 04:29:13;;;;;;;20.50;16.90;;;;;;;13.08;77.71;99071.80;109522;1254;60043;-57
2023/11/09 04:31:46;;;;;;;24.60;19.30;;;;;;;13.23;76.66;99071.99;109675;1251;74603;-58
2023/11/09 04:34:14;;;;;;;47.30;36.00;;;;;;;13.12;76.85;99073.11;109499;1251;102680;-59
2023/11/09 04:36:49;;;;;;;99.20;63.70;;;;;;;13.00;77.09;99074.83;109633;1251;72642;-58
2023/11/09 04:39:29;;;;;;;60.60;38.60;;;;;;;13.07;76.86;99076.34;109597;1251;60778;-59
2023/11/09 04:41:57;;;;;;;63.90;38.80;;;;;;;13.06;76.72;99078.17;109572;1251;59968;-58
2023/11/09 04:44:26;;;;;;;64.50;34.30;;;;;;;13.01;76.80;99078.70;109591;1251;73402;-60
2023/11/09 04:46:57;;;;;;;81.60;40.20;;;;;;;12.84;77.69;99082.48;109577;1251;67216;-58
2023/11/09 04:49:25;;;;;;;104.10;47.70;;;;;;;12.84;77.82;99083.66;109606;1253;72614;-58
2023/11/09 04:51:54;;;;;;;60.10;29.80;;;;;;;12.70;78.61;103513.04;109588;1253;63001;-58
2023/11/09 04:54:24;;;;;;;110.10;46.30;;;;;;;12.69;78.70;98927.34;109556;1251;74743;-59
2023/11/09 05:07:33;;;;;;;177.00;86.40;;;;;;;12.71;78.86;110950.77;109273;1253;59058;-58
2023/11/09 05:10:02;;;;;;;96.60;50.00;;;;;;;12.76;78.69;99091.38;109376;1252;74494;-58
2023/11/09 05:12:30;;;;;;;28.50;20.40;;;;;;;12.68;79.23;99093.83;109390;1253;67085;-59
2023/11/09 05:15:00;;;;;;;254.50;128.10;;;;;;;12.73;79.12;99094.40;109468;1252;72520;-58
2023/11/09 05:17:29;;;;;;;68.40;46.20;;;;;;;12.63;79.61;99093.98;109438;1252;60881;-58
2023/11/09 05:19:57;;;;;;;30.00;23.30;;;;;;;12.69;79.77;99097.81;109440;1253;60005;-58
2023/11/09 05:22:26;;;;;;;36.50;27.50;;;;;;;12.82;79.01;99104.10;109451;1253;74652;-58
2023/11/09 05:24:54;;;;;;;21.20;17.00;;;;;;;12.71;79.46;99109.92;109586;1251;68388;-59
2023/11/09 05:27:22;;;;;;;20.00;14.60;;;;;;;12.56;80.47;99112.27;109613;1251;72441;-58
2023/11/09 05:29:52;;;;;;;29.40;20.30;;;;;;;12.44;81.44;99109.80;109580;1252;60868;-60
2023/11/09 05:32:20;;;;;;;19.70;17.30;;;;;;;12.43;81.79;99112.23;109625;1251;59173;-58
2023/11/09 05:34:47;;;;;;;25.70;20.50;;;;;;;12.45;81.71;99111.14;109591;1251;73457;-58
2023/11/09 05:37:15;;;;;;;21.20;16.90;;;;;;;12.50;81.67;99120.16;109623;1251;68866;-57
2023/11/09 05:39:43;;;;;;;18.90;14.90;;;;;;;12.51;81.73;99122.67;109605;1251;72651;-59
2023/11/09 05:42:10;;;;;;;17.40;13.40;;;;;;;12.56;81.29;99124.43;109657;1251;60821;-58
2023/11/09 05:44:38;;;;;;;30.50;13.40;;;;;;;12.50;81.47;99124.57;109591;1251;59131;-56
2023/11/09 05:47:05;;;;;;;17.20;13.00;;;;;;;12.60;81.29;99130.66;109547;1252;73349;-58
2023/11/09 05:49:33;;;;;;;19.30;15.00;;;;;;;12.67;80.49;99130.69;109430;1253;68477;-58
2023/11/09 05:52:00;;;;;;;19.90;16.00;;;;;;;12.78;80.06;99137.14;109463;1252;72687;-56
2023/11/09 05:54:29;;;;;;;23.90;15.40;;;;;;;12.77;80.03;99136.83;109494;1255;60897;-56
2023/11/09 05:56:57;;;;;;;29.50;21.90;;;;;;;12.80;79.79;99140.30;109468;1253;59990;-57
2023/11/09 05:59:25;;;;;;;25.00;21.00;;;;;;;12.78;79.80;99141.17;109471;1253;75099;-58
2023/11/09 06:01:52;;;;;;;20.00;15.90;;;;;;;12.65;80.63;99141.47;109535;1253;68302;-58
2023/11/09 06:04:20;;;;;;;20.20;14.70;;;;;;;12.56;81.37;99141.45;109530;1251;70452;-57
2023/11/09 06:06:47;;;;;;;23.70;17.30;;;;;;;12.60;81.16;99148.00;109281;1252;60892;-56
2023/11/09 06:09:15;;;;;;;25.20;18.70;;;;;;;12.64;81.29;99152.17;109571;1251;60011;-58
2023/11/09 06:11:43;;;;;;;29.80;17.30;;;;;;;12.64;81.30;99157.46;109567;1252;75482;-58
2023/11/09 06:14:13;;;;;;;24.80;17.80;;;;;;;12.47;82.48;99161.09;109528;1251;67468;-58
2023/11/09 06:16:42;;;;;;;28.80;24.90;;;;;;;12.53;82.23;99162.63;109599;1251;72315;-58
2023/11/09 06:19:09;;;;;;;;;;;;;;;12.53;82.68;99169.95;109612;1251;60887;-59
2023/11/09 06:21:37;;;;;;;60.30;48.10;;;;;;;12.71;81.84;99174.55;109646;1251;59780;-59
2023/11/09 06:24:05;;;;;;;30.50;24.20;;;;;;;12.68;81.60;99169.02;109617;1251;74400;-59
2023/11/09 06:26:32;;;;;;;26.80;20.90;;;;;;;12.71;81.04;99173.58;109604;1251;68342;-58
2023/11/09 06:29:00;;;;;;;31.70;23.00;;;;;;;12.80;80.96;99182.16;109618;1251;72786;-56
2023/11/09 06:31:27;;;;;;;22.10;17.80;;;;;;;12.90;80.70;99184.10;109394;1253;60951;-56
2023/11/09 06:33:55;;;;;;;24.30;14.80;;;;;;;12.80;81.29;99185.72;109593;1251;58947;-58
2023/11/09 06:36:23;;;;;;;23.70;15.20;;;;;;;12.80;81.23;99190.66;109624;1251;74611;-58
2023/11/09 06:38:51;;;;;;;19.60;15.10;;;;;;;12.98;80.43;99193.96;109407;1251;68371;-58
2023/11/09 06:41:19;;;;;;;22.00;15.30;;;;;;;12.89;80.92;99193.20;109560;1251;73145;-58
2023/11/09 06:43:46;;;;;;;24.10;16.90;;;;;;;13.01;80.14;99198.38;109635;1251;59952;-58
2023/11/09 06:46:14;;;;;;;23.30;15.40;;;;;;;12.99;80.07;99199.67;109587;1251;60035;-58
2023/11/09 06:48:41;;;;;;;20.10;15.60;;;;;;;12.84;80.92;99202.92;109684;1251;74594;-58
2023/11/09 06:51:09;;;;;;;23.60;17.00;;;;;;;12.97;80.81;99202.81;109262;1251;67107;-58
2023/11/09 06:53:37;;;;;;;20.30;14.50;;;;;;;12.87;81.05;99211.00;109605;1251;71824;-57
2023/11/09 06:56:05;;;;;;;17.30;14.40;;;;;;;12.90;80.58;99211.45;109618;1252;59555;-58
2023/11/09 06:58:33;;;;;;;21.30;16.20;;;;;;;12.88;80.59;99216.05;109595;1251;59115;-57
2023/11/09 07:01:00;;;;;;;23.10;16.90;;;;;;;12.73;81.73;99218.86;109638;1251;74626;-57
2023/11/09 07:03:28;;;;;;;21.90;16.20;;;;;;;12.76;82.41;99219.98;109553;1252;67441;-58
2023/11/09 07:05:56;;;;;;;24.50;17.90;;;;;;;13.01;80.97;99224.83;109501;1253;71777;-58
2023/11/09 07:08:28;;;;;;;22.20;16.90;;;;;;;13.17;79.82;99225.55;109528;1251;60833;-58
2023/11/09 07:10:57;;;;;;;26.60;17.30;;;;;;;13.06;80.07;99224.63;109469;1251;60069;-59
2023/11/09 07:13:28;;;;;;;28.10;22.60;;;;;;;13.36;78.38;99226.80;109529;1252;72651;-59
2023/11/09 07:15:55;;;;;;;85.70;50.50;;;;;;;13.14;79.75;99226.41;109213;1253;68525;-61
2023/11/09 07:18:23;;;;;;;41.70;35.20;;;;;;;13.28;79.63;99225.60;109478;1253;72703;-58
2023/11/09 07:20:50;;;;;;;89.50;54.70;;;;;;;13.54;78.02;99234.28;109490;1252;59593;-61
2023/11/09 07:23:33;;;;;;;36.80;31.90;;;;;;;13.49;78.18;99238.52;109495;1253;59053;-61
2023/11/09 07:26:01;;;;;;;26.70;22.90;;;;;;;13.44;77.91;99235.91;109500;1253;73928;-61
2023/11/09 07:28:29;;;;;;;26.80;23.50;;;;;;;13.15;79.12;99235.19;109185;1252;67620;-61
2023/11/09 07:30:56;;;;;;;22.20;19.20;;;;;;;13.17;79.25;99239.61;109497;1252;72745;-58
2023/11/09 07:33:24;;;;;;;26.10;20.40;;;;;;;13.33;79.09;99241.36;109458;1253;59730;-60
2023/11/09 07:35:52;;;;;;;24.10;18.70;;;;;;;13.41;78.06;99243.01;109471;1252;59979;-61
2023/11/09 07:38:19;;;;;;;29.20;25.70;;;;;;;13.58;77.60;99240.83;109415;1253;73766;-61
2023/11/09 07:40:47;;;;;;;29.20;26.10;;;;;;;13.97;76.43;99243.36;109518;1253;67108;-61
2023/11/09 07:43:14;;;;;;;28.80;24.80;;;;;;;14.53;73.16;99245.52;109425;1252;72155;-61
2023/11/09 07:45:42;;;;;;;23.60;17.90;;;;;;;14.48;71.74;99245.89;109508;1252;59686;-57
2023/11/09 07:48:09;;;;;;;26.00;19.20;;;;;;;14.61;71.48;99248.80;109634;1252;59098;-60
2023/11/09 07:50:38;;;;;;;25.90;20.60;;;;;;;14.45;71.43;99253.98;109547;1253;73474;-61
2023/11/09 07:53:07;;;;;;;27.60;21.10;;;;;;;14.42;71.12;99259.85;109503;1253;68672;-61
2023/11/09 07:55:35;;;;;;;24.90;19.60;;;;;;;14.11;72.30;99260.35;109518;1252;71398;-61
2023/11/09 07:58:03;;;;;;;;;;;;;;;13.96;73.02;99254.98;109504;1253;61701;-61
2023/11/09 08:00:31;;;;;;;;;;;;;;;14.02;73.45;99266.75;109468;1253;59733;-61
2023/11/09 08:02:58;;;;;;;23.30;18.00;;;;;;;13.95;73.05;99254.88;109607;1252;73486;-61
2023/11/09 08:05:26;;;;;;;32.40;21.60;;;;;;;14.30;72.25;99260.50;109537;1252;67094;-60
2023/11/09 08:07:54;;;;;;;26.00;19.20;;;;;;;14.38;70.50;99265.59;109506;1251;71431;-61
2023/11/09 08:10:24;;;;;;;23.50;18.60;;;;;;;14.42;69.91;99262.54;109682;1250;61685;-61
2023/11/09 08:12:53;;;;;;;27.10;19.50;;;;;;;14.67;69.37;99262.94;109730;1251;59103;-61
2023/11/09 08:15:22;;;;;;;26.30;17.10;;;;;;;14.78;67.66;99265.08;109661;1251;73459;-61
2023/11/09 08:17:49;;;;;;;21.00;16.60;;;;;;;14.69;68.35;99265.89;109679;1250;68362;-61
2023/11/09 08:20:17;;;;;;;24.30;16.30;;;;;;;14.86;68.33;99269.96;109690;1254;72636;-61
2023/11/09 08:22:45;;;;;;;23.30;17.30;;;;;;;15.48;67.16;99271.95;109697;1250;61754;-60
2023/11/09 08:25:14;;;;;;;19.40;15.90;;;;;;;15.80;65.16;99271.66;109386;1250;58971;-61
2023/11/09 08:27:41;;;;;;;;;;;;;;;15.68;65.55;99268.90;109746;1250;73462;-60
2023/11/09 08:30:09;;;;;;;19.90;15.80;;;;;;;15.52;65.12;99276.13;109675;1251;68360;-59
2023/11/09 08:32:37;;;;;;;31.70;22.40;;;;;;;15.27;65.30;99278.48;109660;1250;72608;-60
2023/11/09 08:35:09;;;;;;;26.60;20.00;;;;;;;15.28;65.17;99275.15;109422;1254;61690;-57
2023/11/09 08:37:38;;;;;;;21.90;17.00;;;;;;;14.87;65.96;99278.55;109381;1254;62095;-57
2023/11/09 08:40:09;;;;;;;33.90;25.40;;;;;;;14.74;66.96;99278.04;109422;1254;74632;-57
2023/11/09 08:42:37;;;;;;;38.70;32.30;;;;;;;14.62;67.53;99279.47;109202;1254;67618;-57
2023/11/09 08:45:09;;;;;;;19.90;16.50;;;;;;;14.67;67.45;99288.91;109419;1254;70637;-57
2023/11/09 08:47:37;;;;;;;27.20;22.60;;;;;;;14.49;68.12;99292.06;109374;1254;62670;-57
2023/11/09 08:50:08;;;;;;;22.30;17.20;;;;;;;14.18;69.63;99288.78;109400;1254;58920;-57
2023/11/09 08:52:42;;;;;;;23.40;18.10;;;;;;;14.42;69.66;99293.97;109460;1254;73330;-57
2023/11/09 08:55:11;;;;;;;19.90;16.80;;;;;;;14.82;67.90;99297.64;109179;1254;66986;-57
2023/11/09 08:57:39;;;;;;;25.30;17.70;;;;;;;14.51;68.61;99286.71;109463;1254;72750;-57
2023/11/09 09:00:11;;;;;;;23.10;18.40;;;;;;;14.92;68.17;99286.97;109144;1253;60397;-57
2023/11/09 09:02:48;;;;;;;24.30;16.20;;;;;;;14.94;67.98;99289.31;109394;1254;60717;-57
2023/11/09 09:05:18;;;;;;;21.40;16.60;;;;;;;14.96;68.19;99299.89;109245;1254;76759;-56
2023/11/09 09:07:46;;;;;;;;;;;;;;;14.93;67.89;99300.30;109507;1252;68771;-57
2023/11/09 09:10:15;;;;;;;;;;;;;;;14.75;67.97;99304.84;109226;1251;74842;-57
2023/11/09 09:12:44;;;;;;;26.90;18.50;;;;;;;14.47;68.78;99308.30;109609;1252;60522;-60
2023/11/09 09:15:18;;;;;;;26.30;17.50;;;;;;;14.38;68.61;99308.73;109564;1252;58933;-57
2023/11/09 09:17:47;;;;;;;30.20;19.50;;;;;;;14.53;68.77;99310.99;109577;1251;73347;-56
2023/11/09 09:20:18;;;;;;;43.90;24.50;;;;;;;14.78;67.82;99309.17;109615;1251;68380;-57
2023/11/09 09:22:48;;;;;;;35.90;26.60;;;;;;;14.97;67.70;99305.34;109626;1251;72694;-57
2023/11/09 09:25:16;;;;;;;30.50;22.60;;;;;;;14.96;67.15;99309.14;109567;1251;60391;-57
2023/11/09 09:27:48;;;;;;;38.70;30.90;;;;;;;15.09;66.25;99308.80;109584;1251;61407;-57
2023/11/09 09:30:21;;;;;;;34.00;26.30;;;;;;;15.10;66.59;99312.25;109305;1251;76887;-57
2023/11/09 09:32:50;;;;;;;26.10;21.80;;;;;;;15.26;65.75;99311.69;109631;1251;71014;-57
2023/11/09 09:35:25;;;;;;;30.50;25.10;;;;;;;15.02;65.79;99311.23;109570;1252;70955;-57
2023/11/09 09:38:02;;;;;;;23.40;20.00;;;;;;;15.13;65.89;99312.27;109256;1253;63874;-57
2023/11/09 09:40:32;;;;;;;20.80;17.20;;;;;;;15.40;65.50;99316.14;109358;1251;62200;-57
2023/11/09 09:43:14;;;;;;;22.20;17.20;;;;;;;15.24;65.88;99315.88;109603;1251;75896;-61
2023/11/09 09:45:46;;;;;;;30.80;23.20;;;;;;;15.12;65.64;99319.10;109583;1251;69572;-58
2023/11/09 09:48:15;;;;;;;21.90;17.30;;;;;;;15.06;65.40;99316.75;109266;1252;74920;-57
2023/11/09 09:50:43;;;;;;;19.60;16.80;;;;;;;14.59;67.85;99317.90;109604;1253;62601;-56
2023/11/09 09:53:12;;;;;;;23.90;18.50;;;;;;;14.88;67.14;99322.14;109304;1251;62230;-56
2023/11/09 09:55:41;;;;;;;22.40;18.10;;;;;;;14.81;67.78;99322.60;109511;1251;73478;-56
2023/11/09 09:58:09;;;;;;;21.40;17.90;;;;;;;14.92;67.06;99323.06;109601;1251;68471;-57
2023/11/09 10:00:38;;;;;;;23.70;16.90;;;;;;;15.05;66.69;99326.76;109601;1251;71429;-56
2023/11/09 10:03:06;;;;;;;21.40;17.80;;;;;;;15.10;66.14;99325.68;109426;1253;61666;-57
2023/11/09 10:05:36;;;;;;;25.20;18.10;;;;;;;14.86;66.60;99328.00;109511;1253;61315;-57
2023/11/09 10:08:08;;;;;;;23.70;18.50;;;;;;;14.78;67.15;99322.14;109395;1252;74631;-57
2023/11/09 10:10:37;;;;;;;20.70;17.70;;;;;;;14.80;67.29;99316.40;109542;1253;71026;-56
2023/11/09 10:13:15;;;;;;;22.30;19.60;;;;;;;15.01;66.44;99320.21;109552;1251;71400;-57
2023/11/09 10:15:46;;;;;;;28.80;20.70;;;;;;;15.15;65.00;99329.23;109606;1251;60823;-59
2023/11/09 10:18:13;;;;;;;22.10;18.10;;;;;;;15.14;65.03;99324.59;109590;1253;58864;-57
2023/11/09 10:21:03;;;;;;;24.80;20.80;;;;;;;15.07;65.06;99328.14;109395;1253;75703;-58
2023/11/09 10:23:31;;;;;;;25.50;17.90;;;;;;;15.21;64.66;99329.16;109166;1253;71009;-58
2023/11/09 10:25:59;;;;;;;27.00;20.70;;;;;;;14.96;64.87;99327.66;109580;1251;74902;-57
2023/11/09 10:28:32;;;;;;;26.50;18.10;;;;;;;14.93;65.02;99327.66;109521;1251;62179;-58
2023/11/09 10:31:00;;;;;;;24.00;17.40;;;;;;;14.98;65.80;99332.63;109591;1251;60023;-56
2023/11/09 10:33:30;;;;;;;115.20;41.50;;;;;;;15.24;64.21;99332.48;109349;1253;76780;-57
2023/11/09 10:35:58;;;;;;;50.30;36.70;;;;;;;15.31;64.04;99334.86;109528;1253;68357;-57
2023/11/09 10:38:25;;;;;;;31.20;23.90;;;;;;;15.40;64.01;99336.98;109550;1252;74874;-56
2023/11/09 10:40:54;;;;;;;66.10;53.00;;;;;;;15.31;63.83;99333.85;109546;1252;61626;-57
2023/11/09 10:43:42;;;;;;;100.70;74.20;;;;;;;15.09;64.43;99337.05;109560;1253;61214;-57
2023/11/09 10:46:10;;;;;;;37.30;27.40;;;;;;;15.03;65.33;99341.54;109460;1252;74673;-57
2023/11/09 10:48:44;;;;;;;65.90;47.60;;;;;;;14.90;66.23;99343.79;109202;1253;69989;-57
2023/11/09 10:51:12;;;;;;;41.20;31.20;;;;;;;14.95;66.14;99343.15;109549;1252;71772;-57
2023/11/09 10:53:41;;;;;;;38.30;30.50;;;;;;;15.01;66.23;99343.89;109362;1251;60737;-56
2023/11/09 10:56:10;;;;;;;32.70;24.40;;;;;;;15.18;65.60;99346.98;109223;1254;59592;-57
2023/11/09 10:58:44;;;;;;;23.20;18.10;;;;;;;15.15;66.36;99350.48;109036;1257;75592;-57
2023/11/09 11:01:20;;;;;;;26.10;20.60;;;;;;;15.14;66.00;99353.96;109053;1256;68555;-56
2023/11/09 11:03:51;;;;;;;22.90;18.40;;;;;;;15.22;65.69;99356.95;109093;1257;74887;-58
2023/11/09 11:06:26;;;;;;;25.10;18.70;;;;;;;14.81;66.79;99353.61;109025;1257;63962;-56
2023/11/09 11:08:54;;;;;;;25.30;18.80;;;;;;;14.81;67.47;99359.24;108847;1259;59026;-56
2023/11/09 11:11:28;;;;;;;24.20;17.30;;;;;;;14.78;66.95;99357.85;108890;1260;75371;-57
2023/11/09 11:13:59;;;;;;;39.80;27.40;;;;;;;14.64;67.95;99359.36;108993;1260;68264;-58
2023/11/09 11:16:41;;;;;;;27.80;20.80;;;;;;;14.68;67.93;99361.90;108666;1266;70512;-58
2023/11/09 11:19:33;;;;;;;38.20;27.40;;;;;;;14.90;66.95;99364.28;108953;1259;62616;-58
2023/11/09 11:22:09;;;;;;;41.10;28.90;;;;;;;14.88;66.92;99366.78;108688;1268;62218;-58
2023/11/09 11:24:41;;;;;;;53.90;39.60;;;;;;;14.98;66.82;99367.23;108967;1260;74679;-59
2023/11/09 11:27:09;;;;;;;31.50;22.90;;;;;;;15.03;66.44;99371.70;108863;1258;68375;-57
2023/11/09 11:29:48;;;;;;;85.90;47.20;;;;;;;15.04;66.37;99372.40;109115;1256;73723;-57